Time;durP1;ratioP1;P1;durP2;ratioP2;P2;SDS_P1;SDS_P2;PMS_P1;PMS_P2;Temp;Humidity;BMP_temperature;BMP_pressure;BME280_temperature;BME280_humidity;BME280_pressure;Samples;Min_cycle;Max_cycle;Signal;HPM_P1;HPM_P2
2021/04/07 00:00:28;;;;;;;16.00;7.60;;;0.40;99.90;;;;;;4971845;28;20540;-57
2021/04/07 00:02:57;;;;;;;9.67;6.30;;;0.50;99.90;;;;;;4969068;28;20433;-56
2021/04/07 00:05:27;;;;;;;13.40;6.63;;;0.50;99.90;;;;;;4971125;28;20031;-58
2021/04/07 00:07:54;;;;;;;16.33;7.27;;;0.40;99.90;;;;;;4953934;28;20081;-58
2021/04/07 00:10:22;;;;;;;16.17;7.57;;;0.40;99.90;;;;;;4954874;28;20037;-55
2021/04/07 00:12:48;;;;;;;17.87;8.73;;;0.40;99.90;;;;;;4935979;28;20042;-57
2021/04/07 00:15:22;;;;;;;21.47;7.30;;;0.40;99.90;;;;;;4949914;28;20122;-56
2021/04/07 00:17:52;;;;;;;18.10;7.83;;;0.40;99.90;;;;;;4970001;28;20022;-57
2021/04/07 00:20:25;;;;;;;19.47;9.97;;;0.40;99.90;;;;;;4965638;28;20031;-55
2021/04/07 00:22:51;;;;;;;18.37;10.60;;;0.40;99.90;;;;;;4968705;28;20660;-56
2021/04/07 00:25:19;;;;;;;20.67;10.43;;;0.40;99.90;;;;;;4954215;28;20034;-58
2021/04/07 00:27:53;;;;;;;23.03;11.53;;;0.40;99.90;;;;;;4953550;28;20034;-56
2021/04/07 00:30:20;;;;;;;19.15;10.93;;;0.30;99.90;;;;;;4961655;28;20034;-55
2021/04/07 00:32:45;;;;;;;23.17;10.67;;;0.30;99.90;;;;;;4951790;28;20038;-59
2021/04/07 00:35:11;;;;;;;21.00;11.73;;;0.40;99.90;;;;;;4971265;28;20400;-55
2021/04/07 00:37:37;;;;;;;28.17;11.93;;;0.40;99.90;;;;;;4947314;28;20090;-57
2021/04/07 00:40:05;;;;;;;22.13;11.30;;;0.40;99.90;;;;;;4969294;28;20501;-55
2021/04/07 00:42:38;;;;;;;19.27;11.30;;;0.30;99.90;;;;;;4963415;28;20643;-55
2021/04/07 00:45:06;;;;;;;26.60;11.83;;;0.30;99.90;;;;;;4972581;28;20027;-55
2021/04/07 00:47:32;;;;;;;23.97;11.20;;;0.30;99.90;;;;;;4970118;28;20091;-57
2021/04/07 00:50:01;;;;;;;18.83;10.23;;;0.30;99.90;;;;;;4972945;28;20509;-57
2021/04/07 00:52:30;;;;;;;22.30;10.27;;;0.30;99.90;;;;;;4970522;28;20027;-57
2021/04/07 00:54:56;;;;;;;23.03;11.67;;;0.30;99.90;;;;;;4971703;28;20034;-57
2021/04/07 01:09:16;;;;;;;23.30;12.57;;;0.40;99.90;;;;;;4969034;28;20960;-57
2021/04/07 01:11:42;;;;;;;26.40;12.83;;;0.40;99.90;;;;;;5006678;28;20042;-59
2021/04/07 01:14:08;;;;;;;24.07;11.47;;;0.40;99.90;;;;;;4997813;28;20064;-62
2021/04/07 01:16:36;;;;;;;22.13;11.63;;;0.40;99.90;;;;;;5012581;28;20574;-59
2021/04/07 01:19:02;;;;;;;21.77;10.83;;;0.40;99.90;;;;;;5014224;28;20021;-63
2021/04/07 01:21:27;;;;;;;22.23;11.03;;;0.40;99.90;;;;;;5013964;28;20029;-60
2021/04/07 01:23:54;;;;;;;26.77;10.90;;;0.40;99.90;;;;;;4999188;28;20021;-60
2021/04/07 01:26:19;;;;;;;27.17;10.17;;;0.40;99.90;;;;;;5019871;28;20101;-59
2021/04/07 01:28:48;;;;;;;27.80;10.40;;;0.40;99.90;;;;;;5018116;28;20109;-62
2021/04/07 01:31:15;;;;;;;20.37;10.50;;;0.40;99.90;;;;;;5024956;28;20033;-59
2021/04/07 01:33:41;;;;;;;23.27;9.73;;;0.40;99.90;;;;;;5015383;28;20030;-61
2021/04/07 01:36:07;;;;;;;24.23;10.00;;;0.40;99.90;;;;;;5014615;28;20452;-58
2021/04/07 01:38:32;;;;;;;20.03;9.93;;;0.40;99.90;;;;;;5010776;28;20057;-61
2021/04/07 01:41:00;;;;;;;20.47;9.03;;;0.50;99.90;;;;;;5019831;28;20026;-61
2021/04/07 01:43:26;;;;;;;24.67;9.77;;;0.40;99.90;;;;;;5019675;28;20080;-61
2021/04/07 01:45:56;;;;;;;16.13;8.90;;;0.40;99.90;;;;;;5014243;28;20033;-61
2021/04/07 01:48:22;;;;;;;21.27;10.67;;;0.50;99.90;;;;;;4996215;28;20037;-59
2021/04/07 01:50:53;;;;;;;19.30;9.33;;;0.50;99.90;;;;;;5024224;28;20026;-58
2021/04/07 01:53:20;;;;;;;20.67;9.17;;;0.40;99.90;;;;;;5016741;28;20033;-58
2021/04/07 01:55:46;;;;;;;19.00;10.33;;;0.40;99.90;;;;;;5011856;28;20064;-60
2021/04/07 01:58:14;;;;;;;15.27;8.53;;;0.40;99.90;;;;;;5011077;28;20577;-61
2021/04/07 02:00:49;;;;;;;20.50;9.43;;;0.40;99.90;;;;;;5000230;28;20422;-62
2021/04/07 02:03:17;;;;;;;18.50;9.03;;;0.40;99.90;;;;;;5007380;28;20018;-61
2021/04/07 02:06:11;;;;;;;12.33;7.73;;;0.40;99.90;;;;;;5007074;28;20022;-61
2021/04/07 02:08:45;;;;;;;17.25;8.13;;;0.40;99.90;;;;;;5011529;28;20026;-59
2021/04/07 02:11:17;;;;;;;22.70;8.32;;;0.40;99.90;;;;;;5015825;28;20050;-61
2021/04/07 02:13:43;;;;;;;14.03;7.80;;;0.40;99.90;;;;;;5016211;28;20030;-59
2021/04/07 02:16:29;;;;;;;14.37;7.40;;;0.40;99.90;;;;;;5008945;28;20097;-62
2021/04/07 02:18:55;;;;;;;16.37;7.00;;;0.30;99.90;;;;;;5016513;28;20459;-60
2021/04/07 02:21:23;;;;;;;10.40;5.90;;;0.30;99.90;;;;;;5016962;28;20104;-62
2021/04/07 02:23:49;;;;;;;15.27;6.23;;;0.30;99.90;;;;;;5009390;28;20033;-59
2021/04/07 02:26:21;;;;;;;17.63;5.80;;;0.30;99.90;;;;;;5018363;28;20087;-61
2021/04/07 02:28:47;;;;;;;11.37;5.83;;;0.20;99.90;;;;;;5015689;28;20072;-60
2021/04/07 02:31:12;;;;;;;17.80;6.47;;;0.20;99.90;;;;;;5019066;28;20482;-57
2021/04/07 02:33:38;;;;;;;15.10;5.77;;;0.30;99.90;;;;;;5020251;28;20427;-56
2021/04/07 02:36:04;;;;;;;17.83;7.20;;;0.30;99.90;;;;;;5014588;28;20376;-56
2021/04/07 02:38:29;;;;;;;11.07;6.50;;;0.30;99.90;;;;;;5017494;28;20092;-49
2021/04/07 02:40:55;;;;;;;16.23;7.77;;;0.30;99.90;;;;;;5012114;28;20061;-56
2021/04/07 02:43:20;;;;;;;16.43;6.53;;;0.30;99.90;;;;;;5016865;28;20056;-58
2021/04/07 02:45:46;;;;;;;14.13;7.40;;;0.30;99.90;;;;;;5018650;28;20034;-57
2021/04/07 02:48:11;;;;;;;13.93;7.50;;;0.40;99.90;;;;;;5021839;28;20686;-57
2021/04/07 02:50:37;;;;;;;15.80;7.23;;;0.30;99.90;;;;;;5018133;28;20040;-55
2021/04/07 02:53:03;;;;;;;17.33;8.07;;;0.30;99.90;;;;;;5017411;28;20038;-57
2021/04/07 02:55:28;;;;;;;16.70;7.47;;;0.20;99.90;;;;;;5012646;28;20505;-52
2021/04/07 02:57:54;;;;;;;13.80;8.03;;;0.30;99.90;;;;;;5020082;28;20026;-59
2021/04/07 03:00:21;;;;;;;20.57;9.60;;;0.30;99.90;;;;;;5021035;28;20037;-55
2021/04/07 03:02:46;;;;;;;14.60;8.13;;;0.30;99.90;;;;;;5012770;28;20144;-57
2021/04/07 03:05:13;;;;;;;14.20;8.50;;;0.30;99.90;;;;;;5010978;28;20121;-58
2021/04/07 03:07:42;;;;;;;15.70;7.93;;;0.30;99.90;;;;;;5013274;28;20105;-57
2021/04/07 03:10:24;;;;;;;18.80;7.53;;;0.30;99.90;;;;;;5019382;28;20398;-61
2021/04/07 03:12:52;;;;;;;22.00;7.73;;;0.30;99.90;;;;;;5018980;28;20030;-62
2021/04/07 03:15:18;;;;;;;13.83;7.10;;;0.30;99.90;;;;;;5017304;28;20053;-61
2021/04/07 03:18:03;;;;;;;10.40;6.80;;;0.30;99.90;;;;;;5019151;28;20883;-59
2021/04/07 03:20:36;;;;;;;14.53;8.07;;;0.30;99.90;;;;;;5018206;28;20044;-62
2021/04/07 03:23:02;;;;;;;15.03;7.50;;;0.30;99.90;;;;;;5016525;28;20100;-61
2021/04/07 03:25:34;;;;;;;14.30;7.07;;;0.30;99.90;;;;;;5015642;28;20140;-61
2021/04/07 03:28:03;;;;;;;13.00;6.83;;;0.30;99.90;;;;;;5011947;28;20034;-61
2021/04/07 03:30:49;;;;;;;16.40;7.50;;;0.40;99.90;;;;;;5020896;28;20033;-60
2021/04/07 03:33:35;;;;;;;14.20;8.30;;;0.30;99.90;;;;;;5017337;28;20637;-59
2021/04/07 03:36:08;;;;;;;10.97;7.33;;;0.30;99.90;;;;;;5019890;28;20046;-61
2021/04/07 03:38:37;;;;;;;16.10;8.10;;;0.40;99.90;;;;;;5027074;28;20107;-63
2021/04/07 03:41:03;;;;;;;16.93;7.63;;;0.30;99.90;;;;;;5011273;28;20018;-63
2021/04/07 03:43:29;;;;;;;23.33;8.70;;;0.40;99.90;;;;;;5015976;28;20036;-59
2021/04/07 03:46:02;;;;;;;14.60;8.27;;;0.40;99.90;;;;;;4994091;28;20700;-60
2021/04/07 03:48:30;;;;;;;13.00;7.90;;;0.40;99.90;;;;;;5020527;28;20533;-59
2021/04/07 03:51:05;;;;;;;14.30;7.93;;;0.40;99.90;;;;;;5010346;28;20034;-61
2021/04/07 03:53:51;;;;;;;19.80;9.37;;;0.40;99.90;;;;;;5004989;28;20034;-60
2021/04/07 03:56:37;;;;;;;24.43;9.10;;;0.40;99.90;;;;;;5017314;28;20740;-60
2021/04/07 03:59:03;;;;;;;14.37;8.87;;;0.30;99.90;;;;;;5007074;28;20057;-61
2021/04/07 04:01:29;;;;;;;17.90;9.40;;;0.40;99.90;;;;;;5011356;28;20014;-61
2021/04/07 04:03:55;;;;;;;15.07;9.57;;;0.40;99.90;;;;;;5023210;28;20036;-62
2021/04/07 04:06:28;;;;;;;21.77;10.23;;;0.30;99.90;;;;;;5015147;28;20390;-60
2021/04/07 04:08:53;;;;;;;16.67;9.53;;;0.30;99.90;;;;;;5013179;28;20037;-61
2021/04/07 04:11:28;;;;;;;17.77;10.53;;;0.30;99.90;;;;;;5007459;28;20087;-61
2021/04/07 04:13:56;;;;;;;17.60;9.87;;;0.30;99.90;;;;;;5007229;28;20042;-61
2021/04/07 04:16:25;;;;;;;18.30;11.00;;;0.30;99.90;;;;;;5008804;28;20528;-60
2021/04/07 04:18:54;;;;;;;21.10;11.37;;;0.40;99.90;;;;;;5016003;28;20037;-61
2021/04/07 04:21:23;;;;;;;17.40;11.87;;;0.30;99.90;;;;;;5007201;28;20518;-61
2021/04/07 04:23:56;;;;;;;22.57;11.83;;;0.30;99.90;;;;;;5016110;28;20407;-61
2021/04/07 04:26:28;;;;;;;24.65;10.98;;;0.30;99.90;;;;;;5001634;28;20038;-60
2021/04/07 04:28:54;;;;;;;19.63;11.53;;;0.40;99.90;;;;;;5007615;28;20036;-61
2021/04/07 04:31:23;;;;;;;20.57;12.17;;;0.40;99.90;;;;;;4989525;28;20540;-61
2021/04/07 04:33:49;;;;;;;19.00;12.10;;;0.30;99.90;;;;;;5012769;28;20032;-61
2021/04/07 04:36:14;;;;;;;23.30;11.43;;;0.30;99.90;;;;;;5011981;28;20029;-61
2021/04/07 04:38:48;;;;;;;22.60;12.23;;;0.30;99.90;;;;;;5016502;28;20029;-63
2021/04/07 04:41:19;;;;;;;18.25;11.38;;;0.30;99.90;;;;;;5006957;28;20034;-61
2021/04/07 04:43:45;;;;;;;20.17;12.57;;;0.20;99.90;;;;;;5012338;28;20502;-62
2021/04/07 04:46:13;;;;;;;18.07;12.17;;;0.20;99.90;;;;;;5011332;28;20026;-59
2021/04/07 04:48:42;;;;;;;20.93;12.97;;;0.20;99.90;;;;;;4999360;28;20030;-60
2021/04/07 04:51:15;;;;;;;28.40;13.33;;;0.30;99.90;;;;;;5021077;28;20036;-61
2021/04/07 04:53:47;;;;;;;19.50;13.50;;;0.30;99.90;;;;;;5012689;28;20490;-61
2021/04/07 04:56:15;;;;;;;25.20;12.80;;;0.30;99.90;;;;;;5018150;28;20034;-61
2021/04/07 04:58:45;;;;;;;22.80;13.23;;;0.30;99.90;;;;;;5010178;28;20478;-62
2021/04/07 05:01:18;;;;;;;20.43;9.43;;;0.30;99.90;;;;;;5010030;28;21260;-59
2021/04/07 05:03:44;;;;;;;24.07;11.80;;;0.20;99.90;;;;;;5023495;28;20029;-62
2021/04/07 05:06:10;;;;;;;18.93;12.60;;;0.30;99.90;;;;;;5014479;28;20022;-63
2021/04/07 05:08:36;;;;;;;17.77;11.57;;;0.30;99.90;;;;;;5012461;28;20057;-61
2021/04/07 05:11:08;;;;;;;26.77;14.00;;;0.30;99.90;;;;;;5006937;28;20506;-62
2021/04/07 05:13:38;;;;;;;19.80;10.70;;;0.30;99.90;;;;;;5023148;28;20037;-61
2021/04/07 05:16:10;;;;;;;18.80;11.63;;;0.30;99.90;;;;;;5012346;28;20025;-61
2021/04/07 05:18:41;;;;;;;22.60;12.13;;;0.40;99.90;;;;;;4991258;28;20427;-61
2021/04/07 05:21:13;;;;;;;21.90;11.97;;;0.30;99.90;;;;;;5006852;28;20394;-61
2021/04/07 05:23:39;;;;;;;21.80;12.10;;;0.40;99.90;;;;;;5008661;28;20041;-62
2021/04/07 05:26:07;;;;;;;21.67;12.97;;;0.40;99.90;;;;;;5009584;28;20042;-62
2021/04/07 05:28:36;;;;;;;20.67;12.20;;;0.40;99.90;;;;;;5008885;28;20026;-62
2021/04/07 05:31:09;;;;;;;31.20;13.73;;;0.40;99.90;;;;;;5015297;28;20502;-61
2021/04/07 05:36:37;;;;;;;22.53;12.63;;;0.40;99.90;;;;;;5006823;28;20061;-63
2021/04/07 05:39:06;;;;;;;23.37;13.20;;;0.40;99.90;;;;;;5011506;28;20401;-62
2021/04/07 05:41:32;;;;;;;23.03;12.70;;;0.40;99.90;;;;;;5019954;28;20108;-63
2021/04/07 05:43:58;;;;;;;16.70;11.33;;;0.40;99.90;;;;;;5017244;28;20109;-61
2021/04/07 05:46:31;;;;;;;21.73;11.80;;;0.40;99.90;;;;;;5006242;28;20034;-61
2021/04/07 05:48:56;;;;;;;21.67;10.63;;;0.50;99.90;;;;;;4998486;28;20042;-64
2021/04/07 05:51:28;;;;;;;25.23;11.57;;;0.50;99.90;;;;;;5015819;28;20068;-60
2021/04/07 05:53:57;;;;;;;17.87;11.77;;;0.50;99.90;;;;;;5011757;28;20030;-62
2021/04/07 05:56:23;;;;;;;27.73;15.17;;;0.60;99.90;;;;;;5019263;28;20389;-62
2021/04/07 05:58:55;;;;;;;43.27;21.47;;;0.70;99.90;;;;;;5019760;28;20025;-63
2021/04/07 06:01:26;;;;;;;41.27;19.70;;;0.70;99.90;;;;;;5009621;28;20033;-62
2021/04/07 06:03:55;;;;;;;36.78;19.83;;;0.70;99.90;;;;;;5015717;28;20076;-61
2021/04/07 06:06:32;;;;;;;26.30;13.87;;;0.70;99.90;;;;;;5017963;28;20037;-62
2021/04/07 06:08:58;;;;;;;21.27;11.70;;;0.70;99.90;;;;;;5017610;28;20029;-60
2021/04/07 06:11:27;;;;;;;20.77;11.30;;;0.70;99.90;;;;;;5011987;28;20041;-60
2021/04/07 06:14:08;;;;;;;22.90;12.45;;;0.60;99.90;;;;;;5017661;28;20072;-61
2021/04/07 06:16:42;;;;;;;17.50;10.13;;;0.60;99.90;;;;;;5018230;28;20049;-62
2021/04/07 06:19:07;;;;;;;;;;;0.60;99.90;;;;;;5003954;28;20039;-60
2021/04/07 06:21:39;;;;;;;20.92;10.65;;;0.70;99.90;;;;;;4996451;28;19925;-63
2021/04/07 06:24:11;;;;;;;17.67;9.93;;;0.70;99.90;;;;;;5009820;28;20026;-61
2021/04/07 06:27:09;;;;;;;13.87;9.53;;;0.70;99.90;;;;;;5011081;28;20432;-61
2021/04/07 06:29:37;;;;;;;27.08;10.38;;;0.60;99.90;;;;;;5014833;28;20521;-61
2021/04/07 06:32:06;;;;;;;21.83;11.10;;;0.70;99.90;;;;;;5007935;28;20036;-61
2021/04/07 06:34:32;;;;;;;17.00;9.13;;;0.60;99.90;;;;;;5010071;28;20036;-62
2021/04/07 06:37:00;;;;;;;23.07;9.67;;;0.50;99.90;;;;;;5013816;28;20029;-60
2021/04/07 06:39:29;;;;;;;20.83;12.03;;;0.50;99.90;;;;;;5013150;28;20042;-63
2021/04/07 06:41:54;;;;;;;17.03;10.80;;;0.60;99.90;;;;;;5011608;28;20025;-61
2021/04/07 06:44:21;;;;;;;22.30;10.57;;;0.60;99.90;;;;;;5019003;28;20727;-62
2021/04/07 06:46:47;;;;;;;18.63;9.90;;;0.60;99.90;;;;;;5013137;28;20032;-62
2021/04/07 06:49:13;;;;;;;21.83;9.87;;;0.70;99.90;;;;;;5016881;28;20030;-62
2021/04/07 06:51:42;;;;;;;23.77;10.77;;;0.70;99.90;;;;;;5015431;28;20145;-62
2021/04/07 06:54:09;;;;;;;21.53;12.40;;;0.70;99.90;;;;;;4986140;28;20053;-63
2021/04/07 06:56:41;;;;;;;26.40;11.90;;;0.80;99.90;;;;;;5013071;28;20026;-62
2021/04/07 06:59:08;;;;;;;23.25;11.32;;;0.70;99.90;;;;;;5024184;28;20133;-62
2021/04/07 07:01:34;;;;;;;27.08;12.70;;;0.70;99.90;;;;;;5012516;28;20033;-61
2021/04/07 07:04:03;;;;;;;19.80;11.02;;;0.70;99.90;;;;;;5023940;28;20018;-62
2021/04/07 07:06:30;;;;;;;19.03;12.03;;;0.80;99.90;;;;;;5013276;28;20029;-61
2021/04/07 07:09:17;;;;;;;25.52;12.75;;;0.80;99.90;;;;;;5002910;28;20029;-62
2021/04/07 07:11:51;;;;;;;15.27;9.18;;;0.80;99.90;;;;;;5014412;28;20737;-60
2021/04/07 07:14:23;;;;;;;33.10;14.20;;;0.70;99.90;;;;;;5007698;28;20027;-61
2021/04/07 07:16:56;;;;;;;26.70;16.10;;;0.60;99.90;;;;;;5016225;28;20521;-61
2021/04/07 07:19:35;;;;;;;27.90;14.90;;;0.70;99.90;;;;;;4992712;28;20711;-61
2021/04/07 07:22:07;;;;;;;27.97;14.97;;;0.70;99.90;;;;;;4999219;28;20049;-63
2021/04/07 07:24:40;;;;;;;30.03;15.07;;;0.70;99.90;;;;;;5017958;28;20033;-62
2021/04/07 07:27:11;;;;;;;26.63;12.70;;;0.70;99.90;;;;;;5018528;28;20026;-59
2021/04/07 07:29:39;;;;;;;26.88;12.45;;;0.70;99.90;;;;;;5019279;28;20101;-62
2021/04/07 07:32:32;;;;;;;22.73;13.37;;;0.70;99.90;;;;;;5022705;28;20394;-62
2021/04/07 07:35:20;;;;;;;25.02;12.60;;;0.70;99.90;;;;;;4999249;28;20034;-60
2021/04/07 07:37:59;;;;;;;29.70;14.33;;;0.70;99.90;;;;;;5022991;28;20289;-61
2021/04/07 07:40:28;;;;;;;21.40;12.80;;;0.80;99.90;;;;;;5008750;28;20078;-61
2021/04/07 07:42:55;;;;;;;20.23;10.87;;;0.70;99.90;;;;;;5026088;28;20061;-62
2021/04/07 07:45:27;;;;;;;19.67;10.77;;;0.70;99.90;;;;;;5011173;28;20041;-62
2021/04/07 07:48:13;;;;;;;25.10;12.43;;;0.70;99.90;;;;;;5023894;28;20037;-59
2021/04/07 07:50:51;;;;;;;21.33;10.63;;;0.70;99.90;;;;;;5009920;28;20064;-61
2021/04/07 07:53:23;;;;;;;27.33;12.30;;;0.70;99.90;;;;;;5012267;28;20042;-62
2021/04/07 07:55:56;;;;;;;24.33;12.87;;;0.80;99.90;;;;;;5006122;28;20048;-63
2021/04/07 07:58:29;;;;;;;18.70;12.07;;;0.70;99.90;;;;;;5006902;28;20843;-60
2021/04/07 08:01:18;;;;;;;19.97;10.80;;;0.70;99.90;;;;;;5014257;28;20570;-61
2021/04/07 08:03:48;;;;;;;25.63;12.33;;;0.70;99.90;;;;;;5014341;28;20448;-61
2021/04/07 08:06:23;;;;;;;28.77;13.33;;;0.70;99.90;;;;;;5013916;28;20037;-62
2021/04/07 08:08:49;;;;;;;23.23;11.70;;;0.80;99.90;;;;;;4998261;28;20030;-62
2021/04/07 08:11:15;;;;;;;24.80;12.57;;;0.80;99.90;;;;;;5007494;28;20045;-61
2021/04/07 08:13:59;;;;;;;21.67;11.18;;;0.80;99.90;;;;;;5001879;28;20029;-60
2021/04/07 08:16:31;;;;;;;23.30;11.33;;;0.80;99.90;;;;;;4986091;28;20109;-61
2021/04/07 08:19:15;;;;;;;25.58;12.55;;;0.70;99.90;;;;;;5007454;28;20136;-61
2021/04/07 08:21:42;;;;;;;26.38;11.95;;;0.80;99.90;;;;;;4994058;28;20613;-61
2021/04/07 08:24:10;;;;;;;15.98;10.27;;;0.80;99.90;;;;;;4999015;28;20029;-61
2021/04/07 08:26:38;;;;;;;19.15;10.77;;;0.70;99.90;;;;;;4991672;28;20018;-64
2021/04/07 08:29:16;;;;;;;20.92;10.65;;;0.70;99.90;;;;;;4999517;28;20029;-62
2021/04/07 08:31:49;;;;;;;17.60;10.50;;;0.70;99.90;;;;;;5000164;28;20029;-59
2021/04/07 08:34:17;;;;;;;20.70;11.70;;;0.80;99.90;;;;;;4986555;28;20127;-62
2021/04/07 08:37:12;;;;;;;17.67;8.88;;;0.70;99.90;;;;;;5007910;28;20116;-64
2021/04/07 08:39:52;;;;;;;17.08;11.13;;;0.70;99.90;;;;;;5004296;28;20045;-58
2021/04/07 08:42:34;;;;;;;16.95;9.38;;;0.70;99.90;;;;;;5007140;28;20030;-60
2021/04/07 08:45:06;;;;;;;17.00;8.93;;;0.70;99.90;;;;;;5014839;28;20029;-60
2021/04/07 08:47:48;;;;;;;16.60;8.17;;;0.80;99.90;;;;;;5005742;28;20080;-62
2021/04/07 08:50:36;;;;;;;15.10;8.88;;;0.80;99.90;;;;;;5007083;28;20034;-61
2021/04/07 08:53:12;;;;;;;14.60;7.88;;;0.90;99.90;;;;;;5009929;28;20025;-62
2021/04/07 08:56:07;;;;;;;16.05;7.53;;;0.90;99.90;;;;;;5003831;28;20018;-62
2021/04/07 08:58:33;;;;;;;16.80;8.18;;;0.90;99.90;;;;;;5012125;28;20053;-61
2021/04/07 09:01:05;;;;;;;13.18;7.93;;;1.00;99.90;;;;;;5013465;28;20029;-61
2021/04/07 09:03:42;;;;;;;15.13;7.50;;;1.00;99.90;;;;;;4997227;28;20534;-63
2021/04/07 09:06:13;;;;;;;13.85;6.13;;;1.10;99.90;;;;;;5016784;28;20045;-62
2021/04/07 09:08:39;;;;;;;11.45;6.10;;;1.10;99.90;;;;;;5003004;28;20038;-62
2021/04/07 09:11:32;;;;;;;15.10;7.00;;;1.30;99.90;;;;;;5019493;28;20037;-63
2021/04/07 09:14:02;;;;;;;13.35;6.30;;;1.40;99.90;;;;;;5015748;28;20498;-60
2021/04/07 09:16:41;;;;;;;12.73;6.80;;;1.40;99.90;;;;;;5011597;28;20537;-61
2021/04/07 09:22:40;;;;;;;7.60;4.75;;;1.60;99.90;;;;;;5018817;28;20053;-63
2021/04/07 09:25:19;;;;;;;8.43;5.40;;;1.70;99.90;;;;;;5018008;28;20041;-61
2021/04/07 09:27:47;;;;;;;12.05;7.90;;;1.60;99.90;;;;;;5010684;28;20566;-62
2021/04/07 09:30:14;;;;;;;6.68;4.85;;;1.60;99.90;;;;;;5014623;28;20048;-61
2021/04/07 09:32:46;;;;;;;6.85;4.88;;;1.50;99.90;;;;;;5015420;28;20033;-61
2021/04/07 09:35:12;;;;;;;8.23;4.72;;;1.50;99.90;;;;;;5013585;28;20057;-62
2021/04/07 09:37:40;;;;;;;8.40;5.20;;;1.40;99.90;;;;;;5017523;28;20435;-62
2021/04/07 09:40:29;;;;;;;7.18;5.47;;;1.40;99.90;;;;;;5009534;28;20030;-62
2021/04/07 09:43:02;;;;;;;7.68;5.78;;;1.40;99.90;;;;;;5020342;28;20036;-62
2021/04/07 09:45:37;;;;;;;7.85;4.97;;;1.40;99.90;;;;;;5018849;28;20045;-62
2021/04/07 09:48:19;;;;;;;8.13;4.53;;;1.60;99.90;;;;;;5014069;28;20116;-61
2021/04/07 09:50:48;;;;;;;6.20;4.28;;;1.80;99.90;;;;;;5018802;28;20113;-63
2021/04/07 09:53:35;;;;;;;9.30;5.32;;;1.90;99.90;;;;;;4987157;28;20030;-61
2021/04/07 09:56:01;;;;;;;7.20;4.22;;;2.00;99.90;;;;;;5017555;28;20030;-63
2021/04/07 09:58:54;;;;;;;6.43;3.58;;;2.00;99.90;;;;;;5027036;28;20108;-62
2021/04/07 10:01:20;;;;;;;5.75;3.55;;;1.90;99.90;;;;;;5010163;28;20030;-60
2021/04/07 10:03:54;;;;;;;5.03;3.85;;;2.00;99.90;;;;;;5019353;28;20034;-62
2021/04/07 10:06:30;;;;;;;5.32;3.22;;;2.00;99.90;;;;;;5013272;28;20866;-61
2021/04/07 10:09:07;;;;;;;6.82;3.40;;;1.90;99.90;;;;;;4986531;28;20046;-62
2021/04/07 10:11:56;;;;;;;6.75;3.08;;;2.00;99.90;;;;;;5017823;28;20864;-62
2021/04/07 10:14:22;;;;;;;5.15;3.30;;;1.90;99.90;;;;;;5007231;28;20029;-62
2021/04/07 10:16:53;;;;;;;5.57;3.33;;;1.90;99.90;;;;;;5016552;28;20084;-62
2021/04/07 10:19:29;;;;;;;4.53;2.58;;;2.00;99.90;;;;;;4996774;28;20047;-60
2021/04/07 10:22:00;;;;;;;5.60;2.75;;;2.10;99.90;;;;;;4991096;28;20537;-62
2021/04/07 10:24:39;;;;;;;5.30;2.65;;;2.30;99.90;;;;;;5014415;28;20034;-61
2021/04/07 10:27:15;;;;;;;4.05;2.40;;;2.60;99.90;;;;;;5014769;28;20028;-62
2021/04/07 10:29:43;;;;;;;6.13;3.03;;;2.40;99.90;;;;;;5016483;28;20022;-62
2021/04/07 10:32:23;;;;;;;5.88;2.95;;;2.60;99.90;;;;;;5018411;28;20031;-62
2021/04/07 10:34:59;;;;;;;6.57;4.03;;;2.60;99.90;;;;;;5007967;28;20053;-62
2021/04/07 10:37:25;;;;;;;6.82;4.07;;;2.40;99.90;;;;;;5014818;28;20045;-63
2021/04/07 10:39:59;;;;;;;6.75;3.25;;;2.10;99.90;;;;;;5019064;28;20029;-63
2021/04/07 10:42:25;;;;;;;4.43;2.90;;;2.10;99.90;;;;;;5001714;28;20038;-62
2021/04/07 10:45:01;;;;;;;8.25;5.47;;;2.00;99.90;;;;;;5007663;28;20525;-61
2021/04/07 10:47:34;;;;;;;6.22;3.95;;;1.90;99.90;;;;;;5007809;28;20065;-61
2021/04/07 10:50:13;;;;;;;4.85;3.15;;;1.80;99.90;;;;;;5008570;28;20522;-63
2021/04/07 10:52:41;;;;;;;13.27;5.45;;;1.80;99.90;;;;;;5007284;28;20077;-61
2021/04/07 10:55:09;;;;;;;16.85;8.82;;;1.70;99.90;;;;;;5006050;28;20037;-62
2021/04/07 10:57:47;;;;;;;9.73;6.38;;;1.70;99.90;;;;;;5009306;28;20568;-62
2021/04/07 11:00:51;;;;;;;11.77;6.70;;;1.90;99.90;;;;;;5002592;28;20113;-62
2021/04/07 11:03:38;;;;;;;6.85;4.80;;;2.00;99.90;;;;;;4943391;28;20194;-62
2021/04/07 11:06:06;;;;;;;7.07;4.38;;;2.00;99.90;;;;;;4919137;28;20047;-61
2021/04/07 11:08:37;;;;;;;10.13;5.93;;;2.00;99.90;;;;;;4993676;28;20042;-62
2021/04/07 11:11:18;;;;;;;13.82;5.30;;;2.10;99.90;;;;;;5008955;28;20034;-61
2021/04/07 11:13:58;;;;;;;6.10;4.03;;;2.30;99.90;;;;;;5023494;28;20056;-61
2021/04/07 11:16:36;;;;;;;7.63;4.63;;;2.40;99.90;;;;;;5008861;28;20037;-61
2021/04/07 11:19:19;;;;;;;3.72;2.95;;;2.40;99.90;;;;;;5008642;28;20113;-60
2021/04/07 11:21:51;;;;;;;6.88;3.25;;;2.50;99.90;;;;;;4966471;28;20498;-61
2021/04/07 11:24:20;;;;;;;5.28;3.70;;;2.40;99.90;;;;;;4988650;28;20041;-63
2021/04/07 11:26:53;;;;;;;6.40;3.88;;;2.40;99.90;;;;;;4989527;28;20029;-63
2021/04/07 11:29:19;;;;;;;6.60;4.45;;;2.40;99.90;;;;;;4983573;28;20121;-64
2021/04/07 11:31:55;;;;;;;6.90;4.97;;;2.40;99.90;;;;;;4984126;28;20553;-62
2021/04/07 11:34:45;;;;;;;6.85;5.03;;;2.40;99.90;;;;;;4985028;28;20377;-61
2021/04/07 11:40:03;;;;;;;6.75;4.93;;;2.70;99.90;;;;;;4954535;28;20136;-59
2021/04/07 11:42:56;;;;;;;8.75;4.85;;;2.80;99.90;;;;;;4985405;28;20062;-60
2021/04/07 11:45:22;;;;;;;8.00;4.60;;;2.80;99.90;;;;;;4987369;28;20030;-62
2021/04/07 11:47:47;;;;;;;7.20;5.38;;;2.60;99.90;;;;;;4994488;28;20026;-58
2021/04/07 11:50:13;;;;;;;6.88;5.72;;;2.50;99.90;;;;;;4987970;28;20072;-61
2021/04/07 11:52:38;;;;;;;14.05;6.90;;;2.40;99.90;;;;;;4988151;28;20033;-62
2021/04/07 11:55:04;;;;;;;13.52;8.85;;;2.30;99.90;;;;;;4989464;28;20558;-58
2021/04/07 11:57:30;;;;;;;14.93;8.45;;;2.30;99.90;;;;;;4983999;28;20026;-58
2021/04/07 11:59:55;;;;;;;14.25;8.00;;;2.40;99.90;;;;;;4990543;28;20026;-61
2021/04/07 12:02:21;;;;;;;18.92;8.93;;;2.50;99.90;;;;;;4995937;28;20034;-62
2021/04/07 12:04:47;;;;;;;19.77;9.57;;;2.50;99.90;;;;;;4996672;28;20030;-58
2021/04/07 12:07:16;;;;;;;27.35;9.48;;;2.60;99.90;;;;;;4998942;28;20073;-61
2021/04/07 12:09:41;;;;;;;20.33;9.20;;;2.70;99.90;;;;;;4990066;28;20034;-60
2021/04/07 12:12:08;;;;;;;17.45;9.40;;;2.80;99.90;;;;;;4990750;28;20034;-57
2021/04/07 12:14:35;;;;;;;18.92;10.38;;;2.90;99.90;;;;;;4991595;28;20531;-59
2021/04/07 12:17:01;;;;;;;17.55;10.02;;;3.10;99.90;;;;;;4989922;28;20125;-59
2021/04/07 12:19:26;;;;;;;23.30;10.48;;;3.20;99.90;;;;;;4988952;28;20037;-61
2021/04/07 12:21:52;;;;;;;21.63;8.90;;;3.20;99.90;;;;;;4964072;28;20034;-60
2021/04/07 12:24:18;;;;;;;19.83;9.10;;;3.30;99.90;;;;;;4993746;28;20112;-59
2021/04/07 12:26:44;;;;;;;18.02;8.65;;;3.30;99.90;;;;;;4988682;28;20492;-61
2021/04/07 12:29:10;;;;;;;14.82;9.35;;;3.30;99.90;;;;;;4989724;28;20041;-60
2021/04/07 12:31:35;;;;;;;20.23;9.23;;;3.20;99.90;;;;;;4989777;28;20022;-58
2021/04/07 12:34:01;;;;;;;27.77;10.75;;;3.20;99.90;;;;;;4991465;28;20085;-59
2021/04/07 12:36:31;;;;;;;25.50;9.93;;;3.20;99.90;;;;;;5000304;28;20046;-60
2021/04/07 12:38:59;;;;;;;19.45;11.52;;;3.20;99.90;;;;;;4994776;28;20041;-59
2021/04/07 12:43:57;;;;;;;16.48;7.55;;;3.30;99.90;;;;;;4990328;28;20438;-60
2021/04/07 12:46:23;;;;;;;25.50;8.75;;;3.20;99.90;;;;;;4989147;28;20030;-56
2021/04/07 12:48:49;;;;;;;28.73;11.35;;;3.10;99.90;;;;;;4990487;28;20030;-60
2021/04/07 12:51:16;;;;;;;32.70;8.90;;;3.10;99.90;;;;;;4995998;28;20026;-61
2021/04/07 12:53:42;;;;;;;23.45;8.90;;;3.10;99.90;;;;;;4988734;28;20022;-58
2021/04/07 12:56:09;;;;;;;22.23;9.70;;;3.10;99.90;;;;;;4983839;28;20045;-59
2021/04/07 12:58:35;;;;;;;19.95;9.45;;;3.10;99.90;;;;;;4983279;28;20025;-62
2021/04/07 13:01:00;;;;;;;34.10;11.90;;;3.10;99.90;;;;;;4989155;28;20431;-61
2021/04/07 13:03:26;;;;;;;33.97;11.50;;;3.10;99.90;;;;;;4992938;28;20519;-59
2021/04/07 13:05:51;;;;;;;30.30;10.30;;;3.20;99.90;;;;;;4988655;28;20439;-59
2021/04/07 13:08:17;;;;;;;26.77;11.60;;;3.20;99.90;;;;;;4996312;28;20034;-58
2021/04/07 13:10:43;;;;;;;38.08;12.20;;;3.20;99.90;;;;;;4999321;28;20040;-61
2021/04/07 13:13:08;;;;;;;29.08;10.80;;;3.20;99.90;;;;;;4994906;28;20042;-61
2021/04/07 13:15:34;;;;;;;29.27;10.50;;;3.30;99.90;;;;;;4995372;28;20076;-60
2021/04/07 13:18:00;;;;;;;21.23;10.23;;;3.30;99.90;;;;;;4995309;28;20030;-61
2021/04/07 13:20:28;;;;;;;18.95;9.35;;;3.40;99.90;;;;;;4994794;28;20026;-57
2021/04/07 13:22:54;;;;;;;15.95;7.32;;;3.60;99.90;;;;;;4990267;28;20022;-60
2021/04/07 13:25:20;;;;;;;19.52;7.70;;;3.80;99.90;;;;;;4987825;28;20038;-60
2021/04/07 13:27:45;;;;;;;19.38;7.45;;;4.00;99.90;;;;;;4995371;28;20434;-60